Hamptonville, North Carolina
Current Conditions -  °F | °C
As of 8:35 PM on Sunday 23 Nov 2014 (Local Time) from KUKF Reporting Station
Moderate Rain Moderate Rain  
Wind Chill: 42°   Ceiling: 300
Heat Index: 46°   Visibility: 4mi
Dew Point: 46°   Wind: 8mph
Humidity: 100%   Direction: 80°E
Pressure: 29.81"   Gusts: NA
Location:  36.1°N, 80.76°W
Report Text: KUKF 240135Z AUTO 08007KT 4SM RA OVC003 08/08 A2981 RMK AO2 P0014
Loading
Personal Weather Stations






























Interactive Weather Map New forecast layout! Learn more

10-Day Weather Forecast

Advertisements
Track Severe Weather on mobile